createdAt,value
2022-12-08T00:00:03.528Z,96.0
2022-12-08T00:02:02.819Z,96.0
2022-12-08T00:04:04.447Z,96.0
2022-12-08T00:06:15.383Z,96.0
2022-12-08T00:08:11.865Z,96.0
2022-12-08T00:10:18.809Z,96.0
2022-12-08T00:12:05.558Z,96.0
2022-12-08T00:14:03.303Z,96.0
2022-12-08T00:16:02.383Z,96.0
2022-12-08T00:18:02.779Z,96.0
2022-12-08T00:20:02.764Z,96.0
2022-12-08T00:22:03.541Z,96.0
2022-12-08T00:24:02.901Z,96.0
2022-12-08T00:26:04.230Z,96.0
2022-12-08T00:28:03.211Z,96.0
2022-12-08T00:30:03.275Z,96.0
2022-12-08T00:32:02.721Z,97.0
2022-12-08T00:34:03.713Z,97.0
2022-12-08T00:36:07.411Z,97.0
2022-12-08T00:38:03.237Z,97.0
2022-12-08T00:40:02.900Z,97.0
2022-12-08T00:42:11.884Z,96.0
2022-12-08T00:44:02.660Z,97.0
2022-12-08T00:46:03.124Z,97.0
2022-12-08T00:48:02.627Z,97.0
2022-12-08T00:50:02.947Z,97.0
2022-12-08T00:52:03.284Z,97.0
2022-12-08T00:54:03.490Z,97.0
2022-12-08T00:56:03.417Z,97.0
2022-12-08T00:58:03.386Z,97.0
2022-12-08T01:00:02.983Z,97.0
2022-12-08T01:02:02.655Z,97.0
2022-12-08T01:04:04.395Z,97.0
2022-12-08T01:06:04.052Z,97.0
2022-12-08T01:08:05.493Z,97.0
2022-12-08T01:10:03.371Z,97.0
2022-12-08T01:12:02.706Z,97.0
2022-12-08T01:14:02.758Z,97.0
2022-12-08T01:16:02.585Z,97.0
2022-12-08T01:18:03.547Z,97.0
2022-12-08T01:20:03.017Z,97.0
2022-12-08T01:22:03.515Z,97.0
2022-12-08T01:24:02.789Z,97.0
2022-12-08T01:26:04.191Z,97.0
2022-12-08T01:28:02.617Z,97.0
2022-12-08T01:30:04.687Z,97.0
2022-12-08T01:32:03.586Z,97.0
2022-12-08T01:34:02.630Z,97.0
2022-12-08T01:36:05.570Z,97.0
2022-12-08T01:38:03.176Z,97.0
2022-12-08T01:40:03.763Z,97.0
2022-12-08T01:42:03.569Z,97.0
2022-12-08T01:44:13.195Z,97.0
2022-12-08T01:46:03.292Z,98.0
2022-12-08T01:48:07.380Z,97.0
2022-12-08T01:50:04.932Z,98.0
2022-12-08T01:52:08.035Z,98.0
2022-12-08T01:54:04.292Z,98.0
2022-12-08T01:56:10.506Z,97.0
2022-12-08T01:58:11.438Z,97.0
2022-12-08T02:00:06.841Z,97.0
2022-12-08T02:02:02.763Z,97.0
2022-12-08T02:04:04.751Z,97.0
2022-12-08T02:06:03.869Z,97.0
2022-12-08T02:08:07.422Z,97.0
2022-12-08T02:10:03.731Z,97.0
2022-12-08T02:12:02.662Z,97.0
2022-12-08T02:14:06.912Z,97.0
2022-12-08T02:16:09.873Z,97.0
2022-12-08T02:18:13.891Z,97.0
2022-12-08T02:20:20.671Z,97.0
2022-12-08T02:22:11.617Z,97.0
2022-12-08T02:24:14.196Z,98.0
2022-12-08T02:26:21.870Z,97.0
2022-12-08T02:28:18.320Z,97.0
2022-12-08T02:30:08.771Z,97.0
2022-12-08T02:32:21.782Z,97.0
2022-12-08T02:34:16.849Z,97.0
2022-12-08T02:36:09.898Z,97.0
2022-12-08T02:38:15.200Z,97.0
2022-12-08T02:40:09.617Z,96.0
2022-12-08T02:42:10.473Z,96.0
2022-12-08T02:44:09.125Z,96.0
2022-12-08T02:46:08.778Z,96.0
2022-12-08T02:48:03.191Z,96.0
2022-12-08T02:50:03.572Z,96.0
2022-12-08T02:52:08.739Z,95.0
2022-12-08T02:54:04.233Z,95.0
2022-12-08T02:56:15.981Z,95.0
2022-12-08T02:58:21.621Z,95.0
2022-12-08T03:00:07.671Z,95.0
2022-12-08T03:02:21.747Z,95.0
2022-12-08T03:04:09.071Z,96.0
2022-12-08T03:06:17.976Z,96.0
2022-12-08T03:08:11.033Z,96.0
2022-12-08T03:10:11.173Z,96.0
2022-12-08T03:12:13.459Z,96.0
2022-12-08T03:14:07.554Z,96.0
2022-12-08T03:16:06.895Z,96.0
2022-12-08T03:18:06.346Z,96.0
2022-12-08T03:20:08.982Z,96.0
2022-12-08T03:22:05.359Z,96.0
2022-12-08T03:24:07.745Z,96.0
2022-12-08T03:26:11.176Z,96.0
2022-12-08T03:28:03.446Z,95.0
2022-12-08T03:30:04.051Z,95.0
2022-12-08T03:32:09.410Z,95.0
2022-12-08T03:34:05.637Z,95.0
2022-12-08T03:36:08.120Z,95.0
2022-12-08T03:38:05.252Z,95.0
2022-12-08T03:40:03.082Z,95.0
2022-12-08T03:42:02.964Z,95.0
2022-12-08T03:44:02.940Z,96.0
2022-12-08T03:46:03.554Z,96.0
2022-12-08T03:48:03.384Z,96.0
2022-12-08T03:50:03.049Z,96.0
2022-12-08T03:52:03.203Z,96.0
2022-12-08T03:54:02.767Z,96.0
2022-12-08T03:56:04.879Z,96.0
2022-12-08T03:58:02.657Z,96.0
2022-12-08T04:00:03.263Z,96.0
2022-12-08T04:02:02.665Z,97.0
2022-12-08T04:04:03.116Z,97.0
2022-12-08T04:06:02.975Z,97.0
2022-12-08T04:08:02.904Z,97.0
2022-12-08T04:10:02.906Z,97.0
2022-12-08T04:12:02.593Z,97.0
2022-12-08T04:14:02.779Z,97.0
2022-12-08T04:16:02.705Z,97.0
2022-12-08T04:18:02.917Z,97.0
2022-12-08T04:20:03.326Z,97.0
2022-12-08T04:22:02.651Z,96.0
2022-12-08T04:24:03.171Z,96.0
2022-12-08T04:26:02.620Z,96.0
2022-12-08T04:28:03.114Z,96.0
2022-12-08T04:30:03.949Z,96.0
2022-12-08T04:32:03.192Z,96.0
2022-12-08T04:34:03.174Z,96.0
2022-12-08T04:36:02.842Z,94.0
2022-12-08T04:38:03.508Z,94.0
2022-12-08T04:40:03.628Z,94.0
2022-12-08T04:42:02.974Z,94.0
2022-12-08T04:44:03.426Z,94.0
2022-12-08T04:46:06.277Z,94.0
2022-12-08T04:48:03.198Z,94.0
2022-12-08T04:50:04.605Z,95.0
2022-12-08T04:52:03.136Z,95.0
2022-12-08T04:54:03.404Z,95.0
2022-12-08T04:56:02.830Z,95.0
2022-12-08T04:58:02.667Z,95.0
2022-12-08T05:00:03.217Z,95.0
2022-12-08T05:02:03.108Z,95.0
2022-12-08T05:04:02.636Z,95.0
2022-12-08T05:06:03.009Z,96.0
2022-12-08T05:08:03.054Z,96.0
2022-12-08T05:10:03.293Z,95.0
2022-12-08T05:12:03.417Z,95.0
2022-12-08T05:14:02.661Z,95.0
2022-12-08T05:16:05.925Z,95.0
2022-12-08T05:18:02.775Z,94.0
2022-12-08T05:20:03.801Z,95.0
2022-12-08T05:22:02.588Z,94.0
2022-12-08T05:24:02.957Z,94.0
2022-12-08T05:26:03.691Z,94.0
2022-12-08T05:28:32.730Z,94.0
2022-12-08T05:30:03.237Z,94.0
2022-12-08T05:32:02.841Z,95.0
2022-12-08T05:34:03.628Z,95.0
2022-12-08T05:36:02.696Z,94.0
2022-12-08T05:38:02.748Z,94.0
2022-12-08T05:40:04.104Z,95.0
2022-12-08T05:42:02.875Z,94.0
2022-12-08T05:44:03.504Z,95.0
2022-12-08T05:46:03.614Z,95.0
2022-12-08T05:48:03.196Z,94.0
2022-12-08T05:50:03.062Z,94.0
2022-12-08T05:52:02.653Z,94.0
2022-12-08T05:54:03.786Z,94.0
2022-12-08T05:56:02.691Z,94.0
2022-12-08T05:58:07.796Z,94.0
2022-12-08T06:00:03.268Z,94.0
2022-12-08T06:02:03.700Z,94.0
2022-12-08T06:04:04.864Z,93.0
2022-12-08T06:06:05.399Z,94.0
2022-12-08T06:08:02.991Z,94.0
2022-12-08T06:10:03.232Z,94.0
2022-12-08T06:12:03.494Z,94.0
2022-12-08T06:14:02.990Z,94.0
2022-12-08T06:16:04.671Z,94.0
2022-12-08T06:18:03.274Z,94.0
2022-12-08T06:20:03.043Z,94.0
2022-12-08T06:22:02.694Z,95.0
2022-12-08T06:24:02.630Z,95.0
2022-12-08T06:26:03.640Z,95.0
2022-12-08T06:28:05.329Z,95.0
2022-12-08T06:30:03.164Z,94.0
2022-12-08T06:32:02.702Z,95.0
2022-12-08T06:34:02.649Z,95.0
2022-12-08T06:36:02.636Z,95.0
2022-12-08T06:38:02.804Z,95.0
2022-12-08T06:40:03.223Z,95.0
2022-12-08T06:42:12.073Z,94.0
2022-12-08T06:44:03.198Z,94.0
2022-12-08T06:46:05.372Z,95.0
2022-12-08T06:48:03.882Z,95.0
2022-12-08T06:50:04.450Z,94.0
2022-12-08T06:52:03.239Z,95.0
2022-12-08T06:54:02.857Z,95.0
2022-12-08T06:56:03.932Z,95.0
2022-12-08T06:58:02.631Z,95.0
2022-12-08T07:00:03.577Z,94.0
2022-12-08T07:02:02.878Z,95.0
2022-12-08T07:04:03.280Z,94.0
2022-12-08T07:06:04.532Z,95.0
2022-12-08T07:08:02.835Z,95.0
2022-12-08T07:10:03.675Z,94.0
2022-12-08T07:12:03.937Z,94.0
2022-12-08T07:14:02.981Z,94.0
2022-12-08T07:16:05.223Z,93.0
2022-12-08T07:18:03.402Z,91.0
2022-12-08T07:20:04.128Z,92.0
2022-12-08T07:22:02.659Z,92.0
2022-12-08T07:24:02.825Z,89.0
2022-12-08T07:26:04.925Z,92.0
2022-12-08T07:28:08.153Z,90.0
2022-12-08T07:30:03.360Z,90.0
2022-12-08T07:32:02.726Z,89.0
2022-12-08T07:34:03.411Z,89.0
2022-12-08T07:36:06.196Z,90.0
2022-12-08T07:38:03.539Z,90.0
2022-12-08T07:40:04.033Z,89.0
2022-12-08T07:42:03.595Z,89.0
2022-12-08T07:44:02.684Z,90.0
2022-12-08T07:46:02.696Z,90.0
2022-12-08T07:48:02.644Z,89.0
2022-12-08T07:50:02.973Z,89.0
2022-12-08T07:52:02.648Z,91.0
2022-12-08T07:54:02.871Z,90.0
2022-12-08T07:56:06.797Z,89.0
2022-12-08T07:58:02.622Z,90.0
2022-12-08T08:00:04.320Z,89.0
2022-12-08T08:02:22.694Z,88.0
2022-12-08T08:04:05.005Z,89.0
2022-12-08T08:06:05.569Z,91.0
2022-12-08T08:08:03.627Z,89.0
2022-12-08T08:10:04.122Z,90.0
2022-12-08T08:12:29.631Z,91.0
2022-12-08T08:14:02.932Z,92.0
2022-12-08T08:16:06.206Z,92.0
2022-12-08T08:18:03.219Z,92.0
2022-12-08T08:20:03.279Z,92.0
2022-12-08T08:22:02.605Z,92.0
2022-12-08T08:24:02.620Z,90.0
2022-12-08T08:26:04.366Z,90.0
2022-12-08T08:28:02.649Z,91.0
2022-12-08T08:30:04.309Z,92.0
2022-12-08T08:32:02.703Z,92.0
2022-12-08T08:34:05.701Z,90.0
2022-12-08T08:36:06.690Z,90.0
2022-12-08T08:38:03.480Z,91.0
2022-12-08T08:40:04.374Z,92.0
2022-12-08T08:42:02.974Z,90.0
2022-12-08T08:44:02.830Z,86.0
2022-12-08T08:46:04.279Z,86.0
2022-12-08T08:48:02.668Z,88.0
2022-12-08T08:50:03.789Z,88.0
2022-12-08T08:52:03.300Z,89.0
2022-12-08T08:54:02.914Z,90.0
2022-12-08T08:56:05.386Z,88.0
2022-12-08T08:58:02.786Z,89.0
2022-12-08T09:00:03.408Z,89.0
2022-12-08T09:02:02.965Z,88.0
2022-12-08T09:04:03.041Z,89.0
2022-12-08T09:06:03.552Z,91.0
2022-12-08T09:08:03.338Z,91.0
2022-12-08T09:10:02.768Z,91.0
2022-12-08T09:12:03.243Z,92.0
2022-12-08T09:14:02.962Z,92.0
2022-12-08T09:16:02.962Z,92.0
2022-12-08T09:18:02.713Z,92.0
2022-12-08T09:20:03.945Z,93.0
2022-12-08T09:22:02.736Z,93.0
2022-12-08T09:24:02.643Z,93.0
2022-12-08T09:26:04.820Z,94.0
2022-12-08T09:28:02.667Z,94.0
2022-12-08T09:30:03.714Z,94.0
2022-12-08T09:32:02.678Z,94.0
2022-12-08T09:34:04.036Z,94.0
2022-12-08T09:36:04.505Z,93.0
2022-12-08T09:38:02.878Z,92.0
2022-12-08T09:40:03.780Z,91.0
2022-12-08T09:42:04.794Z,90.0
2022-12-08T09:44:15.471Z,91.0
2022-12-08T09:46:08.236Z,91.0
2022-12-08T09:48:10.334Z,92.0
2022-12-08T09:50:08.765Z,91.0
2022-12-08T09:52:03.683Z,92.0
2022-12-08T09:54:07.604Z,92.0
2022-12-08T09:56:07.269Z,92.0
2022-12-08T09:58:07.378Z,92.0
2022-12-08T10:00:07.093Z,92.0
2022-12-08T10:02:11.274Z,93.0
2022-12-08T10:04:03.808Z,93.0
2022-12-08T10:06:08.427Z,92.0
2022-12-08T10:08:12.494Z,92.0
2022-12-08T10:10:13.954Z,93.0
2022-12-08T10:12:12.487Z,93.0
2022-12-08T10:14:14.882Z,93.0
2022-12-08T10:16:23.052Z,94.0
2022-12-08T10:18:10.526Z,94.0
2022-12-08T10:20:10.705Z,94.0
2022-12-08T10:22:12.655Z,95.0
2022-12-08T10:24:09.792Z,95.0
2022-12-08T10:26:06.027Z,95.0
2022-12-08T10:28:02.720Z,95.0
2022-12-08T10:30:03.991Z,95.0
2022-12-08T10:32:14.861Z,96.0
2022-12-08T10:34:17.485Z,96.0
2022-12-08T10:36:04.317Z,96.0
2022-12-08T10:38:06.035Z,96.0
2022-12-08T10:40:11.144Z,96.0
2022-12-08T10:42:09.072Z,96.0
2022-12-08T10:44:03.500Z,96.0
2022-12-08T10:46:13.488Z,96.0
2022-12-08T10:48:05.807Z,96.0
2022-12-08T10:50:19.259Z,96.0
2022-12-08T10:52:09.861Z,96.0
2022-12-08T10:54:03.021Z,96.0
2022-12-08T10:56:15.499Z,96.0
2022-12-08T10:58:02.747Z,96.0
2022-12-08T11:00:03.465Z,96.0
2022-12-08T11:02:03.093Z,97.0
2022-12-08T11:04:06.514Z,97.0
2022-12-08T11:06:12.389Z,97.0
2022-12-08T11:08:05.235Z,97.0
2022-12-08T11:10:03.226Z,97.0
2022-12-08T11:12:09.559Z,97.0
2022-12-08T11:14:08.933Z,97.0
2022-12-08T11:16:02.784Z,97.0
2022-12-08T11:18:09.606Z,97.0
2022-12-08T11:20:06.506Z,97.0
2022-12-08T11:22:03.488Z,98.0
2022-12-08T11:24:20.809Z,98.0
2022-12-08T11:26:10.641Z,98.0
2022-12-08T11:28:03.486Z,97.0
2022-12-08T11:30:12.552Z,98.0
2022-12-08T11:32:07.222Z,98.0
2022-12-08T11:34:03.738Z,98.0
2022-12-08T11:36:08.633Z,98.0
2022-12-08T11:38:21.287Z,98.0
2022-12-08T11:40:09.418Z,98.0
2022-12-08T11:42:06.213Z,98.0
2022-12-08T11:44:11.114Z,98.0
2022-12-08T11:46:04.934Z,98.0
2022-12-08T11:48:10.221Z,98.0
2022-12-08T11:50:19.891Z,97.0
2022-12-08T11:52:11.684Z,97.0
2022-12-08T11:54:14.025Z,97.0
2022-12-08T11:56:10.897Z,97.0
2022-12-08T11:58:14.568Z,97.0
2022-12-08T12:00:04.301Z,97.0
2022-12-08T12:02:05.532Z,97.0
2022-12-08T12:04:11.732Z,98.0
2022-12-08T12:08:18.217Z,98.0
2022-12-08T12:10:18.391Z,97.0
2022-12-08T12:12:17.222Z,97.0
2022-12-08T12:14:16.198Z,97.0
2022-12-08T12:16:21.801Z,97.0
2022-12-08T12:18:05.632Z,97.0
2022-12-08T12:20:11.674Z,97.0
2022-12-08T12:22:15.110Z,97.0
2022-12-08T12:24:06.984Z,97.0
2022-12-08T12:26:06.146Z,97.0
2022-12-08T12:28:06.166Z,97.0
2022-12-08T12:30:09.239Z,97.0
2022-12-08T12:32:06.066Z,97.0
2022-12-08T12:34:09.048Z,97.0
2022-12-08T12:36:05.931Z,97.0
2022-12-08T12:38:17.132Z,97.0
2022-12-08T12:40:06.757Z,97.0
2022-12-08T12:42:05.474Z,97.0
2022-12-08T12:44:22.538Z,97.0
2022-12-08T12:46:21.774Z,97.0
2022-12-08T12:48:20.228Z,97.0
2022-12-08T12:50:07.140Z,98.0
2022-12-08T12:52:02.739Z,98.0
2022-12-08T12:54:21.895Z,98.0
2022-12-08T12:56:04.332Z,97.0
2022-12-08T12:58:13.838Z,97.0
2022-12-08T13:00:18.983Z,98.0
2022-12-08T13:02:03.793Z,98.0
2022-12-08T13:04:07.851Z,98.0
2022-12-08T13:06:03.179Z,98.0
2022-12-08T13:08:06.540Z,98.0
2022-12-08T13:10:13.305Z,98.0
2022-12-08T13:12:10.506Z,98.0
2022-12-08T13:14:05.127Z,98.0
2022-12-08T13:16:17.192Z,98.0
2022-12-08T13:18:03.737Z,98.0
2022-12-08T13:20:07.748Z,98.0
2022-12-08T13:22:02.689Z,98.0
2022-12-08T13:24:16.877Z,98.0
2022-12-08T13:26:21.391Z,98.0
2022-12-08T13:28:14.535Z,98.0
2022-12-08T13:30:21.904Z,98.0
2022-12-08T13:32:04.172Z,98.0
2022-12-08T13:34:07.061Z,98.0
2022-12-08T13:36:15.468Z,98.0
2022-12-08T13:38:04.010Z,98.0
2022-12-08T13:40:09.006Z,98.0
2022-12-08T13:42:07.810Z,98.0
2022-12-08T13:44:57.139Z,98.0
2022-12-08T13:48:42.635Z,98.0
2022-12-08T13:58:02.676Z,98.0
2022-12-08T14:00:07.417Z,98.0
2022-12-08T14:02:11.592Z,98.0
2022-12-08T14:04:34.078Z,98.0
2022-12-08T14:06:12.209Z,98.0
2022-12-08T14:08:02.767Z,98.0
2022-12-08T14:10:04.266Z,98.0
2022-12-08T14:12:07.122Z,98.0
2022-12-08T14:14:06.310Z,98.0
2022-12-08T14:16:02.804Z,98.0
2022-12-08T14:18:03.121Z,98.0
2022-12-08T14:20:06.739Z,98.0
2022-12-08T14:22:11.104Z,98.0
2022-12-08T14:24:04.123Z,98.0
2022-12-08T14:26:05.439Z,98.0
2022-12-08T14:28:05.156Z,98.0
2022-12-08T14:30:06.147Z,98.0
2022-12-08T14:32:03.028Z,98.0
2022-12-08T14:34:02.770Z,98.0
2022-12-08T14:36:03.050Z,98.0
2022-12-08T14:38:05.532Z,98.0
2022-12-08T14:40:06.062Z,98.0
2022-12-08T14:42:03.285Z,98.0
2022-12-08T14:44:03.470Z,98.0
2022-12-08T14:46:05.827Z,98.0
2022-12-08T14:48:21.952Z,98.0
2022-12-08T14:50:14.366Z,98.0
2022-12-08T14:52:03.877Z,98.0
2022-12-08T14:54:08.588Z,98.0
2022-12-08T14:56:08.990Z,98.0
2022-12-08T14:58:03.741Z,98.0
2022-12-08T15:00:11.910Z,98.0
2022-12-08T15:02:22.319Z,98.0
2022-12-08T15:04:09.697Z,98.0
2022-12-08T15:06:07.316Z,98.0
2022-12-08T15:08:04.749Z,98.0
2022-12-08T15:10:21.892Z,98.0
2022-12-08T15:12:04.065Z,98.0
2022-12-08T15:14:03.781Z,98.0
2022-12-08T15:16:02.838Z,98.0
2022-12-08T15:18:12.344Z,98.0
2022-12-08T15:20:04.988Z,98.0
2022-12-08T15:22:14.208Z,98.0
2022-12-08T15:24:02.713Z,98.0
2022-12-08T15:26:05.807Z,98.0
2022-12-08T15:28:03.830Z,98.0
2022-12-08T15:30:02.834Z,98.0
2022-12-08T15:32:03.306Z,98.0
2022-12-08T15:34:02.897Z,98.0
2022-12-08T15:36:02.762Z,98.0
2022-12-08T15:38:02.784Z,98.0
2022-12-08T15:40:03.209Z,98.0
2022-12-08T15:42:04.319Z,98.0
2022-12-08T15:44:02.714Z,98.0
2022-12-08T15:46:03.114Z,98.0
2022-12-08T15:48:02.811Z,98.0
2022-12-08T15:50:04.870Z,98.0
2022-12-08T15:52:11.096Z,98.0
2022-12-08T15:54:02.765Z,98.0
2022-12-08T15:56:28.604Z,98.0
2022-12-08T15:58:51.822Z,98.0
2022-12-08T16:00:03.319Z,98.0
2022-12-08T16:02:04.163Z,98.0
2022-12-08T16:06:57.039Z,98.0
2022-12-08T16:08:17.048Z,98.0
2022-12-08T16:10:04.133Z,98.0
2022-12-08T16:12:12.191Z,98.0
2022-12-08T16:14:36.813Z,98.0
2022-12-08T16:16:05.302Z,98.0
2022-12-08T16:18:03.831Z,98.0
2022-12-08T16:20:05.290Z,98.0
2022-12-08T16:22:52.381Z,98.0
2022-12-08T16:24:08.888Z,98.0
2022-12-08T16:26:23.872Z,98.0
2022-12-08T16:28:12.330Z,98.0
2022-12-08T16:30:02.936Z,98.0
2022-12-08T16:32:02.814Z,98.0
2022-12-08T16:34:03.578Z,98.0
2022-12-08T16:36:02.667Z,98.0
2022-12-08T16:38:03.102Z,98.0
2022-12-08T16:40:02.806Z,98.0
2022-12-08T16:42:12.267Z,98.0
2022-12-08T16:44:04.784Z,98.0
2022-12-08T16:46:03.459Z,98.0
2022-12-08T16:48:02.674Z,98.0
2022-12-08T16:50:06.911Z,98.0
2022-12-08T16:52:02.661Z,98.0
2022-12-08T16:54:03.440Z,98.0
2022-12-08T16:56:03.234Z,98.0
2022-12-08T16:58:03.194Z,98.0
2022-12-08T17:00:04.454Z,98.0
2022-12-08T17:02:02.732Z,98.0
2022-12-08T17:04:31.332Z,98.0
2022-12-08T17:06:08.264Z,98.0
2022-12-08T17:08:03.347Z,98.0
2022-12-08T17:10:05.904Z,98.0
2022-12-08T17:12:04.308Z,98.0
2022-12-08T17:14:02.927Z,98.0
2022-12-08T17:16:03.198Z,98.0
2022-12-08T17:18:03.826Z,98.0
2022-12-08T17:20:04.595Z,98.0
2022-12-08T17:22:02.851Z,98.0
2022-12-08T17:24:02.698Z,98.0
2022-12-08T17:26:03.547Z,98.0
2022-12-08T17:28:02.688Z,98.0
2022-12-08T17:30:02.932Z,98.0
2022-12-08T17:32:02.985Z,98.0
2022-12-08T17:34:05.817Z,98.0
2022-12-08T17:36:02.694Z,98.0
2022-12-08T17:38:02.817Z,98.0
2022-12-08T17:40:04.073Z,98.0
2022-12-08T17:42:02.673Z,98.0
2022-12-08T17:44:02.751Z,98.0
2022-12-08T17:46:04.480Z,98.0
2022-12-08T17:48:02.696Z,98.0
2022-12-08T17:50:04.584Z,98.0
2022-12-08T17:52:06.281Z,98.0
2022-12-08T17:54:02.731Z,98.0
2022-12-08T17:56:03.352Z,98.0
2022-12-08T17:58:03.830Z,98.0
2022-12-08T18:00:03.195Z,98.0
2022-12-08T18:02:03.930Z,98.0
2022-12-08T18:04:04.676Z,98.0
2022-12-08T18:06:06.424Z,98.0
2022-12-08T18:08:02.856Z,98.0
2022-12-08T18:10:03.995Z,98.0
2022-12-08T18:12:02.766Z,98.0
2022-12-08T18:14:09.548Z,98.0
2022-12-08T18:16:02.668Z,98.0
2022-12-08T18:18:03.011Z,98.0
2022-12-08T18:20:03.087Z,98.0
2022-12-08T18:22:03.444Z,98.0
2022-12-08T18:24:03.861Z,98.0
2022-12-08T18:26:05.464Z,98.0
2022-12-08T18:28:02.668Z,98.0
2022-12-08T18:30:04.108Z,98.0
2022-12-08T18:32:03.391Z,98.0
2022-12-08T18:34:03.108Z,98.0
2022-12-08T18:36:07.529Z,98.0
2022-12-08T18:38:02.784Z,98.0
2022-12-08T18:40:02.949Z,98.0
2022-12-08T18:42:11.924Z,98.0
2022-12-08T18:44:02.754Z,98.0
2022-12-08T18:46:04.733Z,98.0
2022-12-08T18:48:03.988Z,98.0
2022-12-08T18:50:03.654Z,98.0
2022-12-08T18:52:02.698Z,98.0
2022-12-08T18:54:02.681Z,98.0
2022-12-08T18:56:02.856Z,98.0
2022-12-08T18:58:03.476Z,98.0
2022-12-08T19:00:03.411Z,98.0
2022-12-08T19:02:02.935Z,98.0
2022-12-08T19:04:28.674Z,98.0
2022-12-08T19:06:03.090Z,98.0
2022-12-08T19:08:02.746Z,98.0
2022-12-08T19:10:03.579Z,98.0
2022-12-08T19:12:02.875Z,98.0
2022-12-08T19:14:03.004Z,98.0
2022-12-08T19:16:02.772Z,98.0
2022-12-08T19:18:02.664Z,98.0
2022-12-08T19:20:04.445Z,98.0
2022-12-08T19:22:03.298Z,98.0
2022-12-08T19:24:02.762Z,98.0
2022-12-08T19:26:03.624Z,98.0
2022-12-08T19:28:02.705Z,98.0
2022-12-08T19:30:02.833Z,98.0
2022-12-08T19:32:04.763Z,98.0
2022-12-08T19:34:05.445Z,98.0
2022-12-08T19:36:05.341Z,98.0
2022-12-08T19:38:02.928Z,98.0
2022-12-08T19:40:11.754Z,98.0
2022-12-08T19:42:11.791Z,98.0
2022-12-08T19:44:11.735Z,98.0
2022-12-08T19:46:03.944Z,98.0
2022-12-08T19:48:02.729Z,98.0
2022-12-08T19:50:11.905Z,98.0
2022-12-08T19:52:02.733Z,98.0
2022-12-08T19:54:02.735Z,98.0
2022-12-08T19:56:02.740Z,98.0
2022-12-08T19:58:04.093Z,98.0
2022-12-08T20:00:02.793Z,98.0
2022-12-08T20:02:04.163Z,98.0
2022-12-08T20:04:02.764Z,98.0
2022-12-08T20:06:02.790Z,98.0
2022-12-08T20:08:03.986Z,98.0
2022-12-08T20:10:06.187Z,97.0
2022-12-08T20:12:02.725Z,97.0
2022-12-08T20:14:03.687Z,97.0
2022-12-08T20:16:03.381Z,97.0
2022-12-08T20:18:02.656Z,97.0
2022-12-08T20:20:06.795Z,97.0
2022-12-08T20:22:03.726Z,97.0
2022-12-08T20:24:04.211Z,97.0
2022-12-08T20:26:06.552Z,97.0
2022-12-08T20:28:02.829Z,97.0
2022-12-08T20:30:02.820Z,97.0
2022-12-08T20:32:02.894Z,97.0
2022-12-08T20:34:03.050Z,97.0
2022-12-08T20:36:07.077Z,97.0
2022-12-08T20:38:02.793Z,97.0
2022-12-08T20:40:02.742Z,97.0
2022-12-08T20:42:04.235Z,97.0
2022-12-08T20:44:06.783Z,97.0
2022-12-08T20:46:06.200Z,97.0
2022-12-08T20:48:03.807Z,97.0
2022-12-08T20:50:04.362Z,97.0
2022-12-08T20:52:02.922Z,97.0
2022-12-08T20:54:04.737Z,97.0
2022-12-08T20:56:03.237Z,96.0
2022-12-08T20:58:02.848Z,96.0
2022-12-08T21:00:05.287Z,96.0
2022-12-08T21:02:03.132Z,96.0
2022-12-08T21:04:02.959Z,96.0
2022-12-08T21:06:03.563Z,96.0
2022-12-08T21:08:03.075Z,96.0
2022-12-08T21:10:03.818Z,96.0
2022-12-08T21:12:03.788Z,96.0
2022-12-08T21:14:03.023Z,96.0
2022-12-08T21:16:02.885Z,96.0
2022-12-08T21:18:03.115Z,96.0
2022-12-08T21:20:03.079Z,97.0
2022-12-08T21:22:02.785Z,97.0
2022-12-08T21:24:04.616Z,97.0
2022-12-08T21:26:02.911Z,97.0
2022-12-08T21:28:02.811Z,97.0
2022-12-08T21:30:03.039Z,97.0
2022-12-08T21:32:02.827Z,97.0
2022-12-08T21:34:04.135Z,97.0
2022-12-08T21:36:07.806Z,97.0
2022-12-08T21:38:04.370Z,97.0
2022-12-08T21:40:03.047Z,97.0
2022-12-08T21:42:11.769Z,97.0
2022-12-08T21:44:03.038Z,97.0
2022-12-08T21:46:03.693Z,97.0
2022-12-08T21:48:11.037Z,97.0
2022-12-08T21:50:02.932Z,97.0
2022-12-08T21:52:02.735Z,97.0
2022-12-08T21:54:03.715Z,97.0
2022-12-08T21:56:02.752Z,97.0
2022-12-08T21:58:03.381Z,97.0
2022-12-08T22:00:03.805Z,97.0
2022-12-08T22:02:02.949Z,97.0
2022-12-08T22:04:03.036Z,97.0
2022-12-08T22:06:06.386Z,97.0
2022-12-08T22:08:03.643Z,97.0
2022-12-08T22:10:02.949Z,97.0
2022-12-08T22:12:03.183Z,97.0
2022-12-08T22:14:02.746Z,97.0
2022-12-08T22:16:06.185Z,97.0
2022-12-08T22:18:03.127Z,97.0
2022-12-08T22:20:04.633Z,97.0
2022-12-08T22:22:04.285Z,97.0
2022-12-08T22:24:03.338Z,97.0
2022-12-08T22:26:04.850Z,97.0
2022-12-08T22:28:02.776Z,97.0
2022-12-08T22:30:03.711Z,97.0
2022-12-08T22:32:03.001Z,97.0
2022-12-08T22:34:02.702Z,97.0
2022-12-08T22:36:10.230Z,97.0
2022-12-08T22:38:02.728Z,97.0
2022-12-08T22:40:03.153Z,97.0
2022-12-08T22:42:03.409Z,97.0
2022-12-08T22:44:06.555Z,97.0
2022-12-08T22:46:10.094Z,97.0
2022-12-08T22:48:02.897Z,97.0
2022-12-08T22:50:04.736Z,97.0
2022-12-08T22:52:03.045Z,97.0
2022-12-08T22:54:03.004Z,97.0
2022-12-08T22:56:05.940Z,97.0
2022-12-08T22:58:02.709Z,97.0
2022-12-08T23:00:05.633Z,97.0
2022-12-08T23:02:02.774Z,97.0
2022-12-08T23:04:03.948Z,97.0
2022-12-08T23:06:03.502Z,97.0
2022-12-08T23:08:05.458Z,97.0
2022-12-08T23:10:04.350Z,97.0
2022-12-08T23:12:02.911Z,97.0
2022-12-08T23:14:02.742Z,97.0
2022-12-08T23:16:03.176Z,97.0
2022-12-08T23:18:03.567Z,97.0
2022-12-08T23:20:03.027Z,97.0
2022-12-08T23:22:02.776Z,97.0
2022-12-08T23:24:04.524Z,97.0
2022-12-08T23:26:04.493Z,97.0
2022-12-08T23:28:02.742Z,97.0
2022-12-08T23:30:02.748Z,97.0
2022-12-08T23:32:03.052Z,97.0
2022-12-08T23:34:03.518Z,97.0
2022-12-08T23:36:03.118Z,97.0
2022-12-08T23:38:03.123Z,97.0
2022-12-08T23:40:04.440Z,97.0
2022-12-08T23:42:02.674Z,97.0
2022-12-08T23:44:02.870Z,97.0
2022-12-08T23:46:03.859Z,97.0
2022-12-08T23:48:02.886Z,97.0
2022-12-08T23:50:03.404Z,97.0
2022-12-08T23:52:02.856Z,97.0
2022-12-08T23:54:05.649Z,97.0
2022-12-08T23:56:05.180Z,97.0
2022-12-08T23:58:02.718Z,97.0
